createdAt,value
2023-04-12T00:01:44.746Z,10.55
2023-04-12T00:04:14.706Z,10.56
2023-04-12T00:06:42.663Z,10.67
2023-04-12T00:09:09.666Z,10.66
2023-04-12T00:11:36.797Z,10.62
2023-04-12T00:14:03.697Z,10.79
2023-04-12T00:16:30.918Z,10.67
2023-04-12T00:18:58.080Z,10.74
2023-04-12T00:21:28.867Z,10.68
2023-04-12T00:23:57.216Z,10.59
2023-04-12T00:26:25.870Z,10.56
2023-04-12T00:28:52.869Z,10.71
2023-04-12T00:31:19.973Z,10.72
2023-04-12T00:33:46.964Z,10.71
2023-04-12T00:36:13.857Z,10.70
2023-04-12T00:38:42.635Z,10.67
2023-04-12T00:41:09.518Z,10.61
2023-04-12T00:43:36.451Z,10.71
2023-04-12T00:46:03.765Z,10.75
2023-04-12T00:48:31.566Z,10.75
2023-04-12T00:50:58.640Z,10.83
2023-04-12T00:53:25.709Z,10.83
2023-04-12T00:55:53.049Z,10.85
2023-04-12T00:58:26.701Z,10.77
2023-04-12T01:00:54.841Z,10.84
2023-04-12T01:03:24.149Z,10.88
2023-04-12T01:06:14.185Z,10.87
2023-04-12T01:08:58.003Z,10.83
2023-04-12T01:11:36.149Z,10.71
2023-04-12T01:14:11.213Z,10.48
2023-04-12T01:16:46.233Z,10.79
2023-04-12T01:19:36.743Z,10.81
2023-04-12T01:22:07.371Z,10.84
2023-04-12T01:25:12.784Z,10.83
2023-04-12T01:27:46.059Z,10.81
2023-04-12T01:30:17.076Z,10.45
2023-04-12T01:32:51.352Z,10.71
2023-04-12T01:35:21.684Z,10.62
2023-04-12T01:37:48.973Z,10.75
2023-04-12T01:40:18.538Z,10.75
2023-04-12T01:42:46.027Z,10.73
2023-04-12T01:45:12.913Z,10.80
2023-04-12T01:47:39.949Z,10.71
2023-04-12T01:50:36.136Z,10.82
2023-04-12T01:53:26.876Z,10.78
2023-04-12T01:55:59.456Z,10.76
2023-04-12T01:58:27.582Z,10.80
2023-04-12T02:04:31.679Z,10.82
2023-04-12T02:06:58.890Z,10.84
2023-04-12T02:09:26.123Z,10.86
2023-04-12T02:11:53.265Z,10.84
2023-04-12T02:14:20.238Z,10.69
2023-04-12T02:16:48.041Z,10.91
2023-04-12T02:19:14.989Z,10.90
2023-04-12T02:21:44.737Z,11.03
2023-04-12T02:24:12.479Z,11.03
2023-04-12T02:26:40.213Z,11.06
2023-04-12T02:29:09.665Z,10.69
2023-04-12T02:31:39.102Z,11.16
2023-04-12T02:34:09.318Z,11.06
2023-04-12T02:36:38.796Z,11.17
2023-04-12T02:39:06.336Z,11.31
2023-04-12T02:41:34.938Z,11.24
2023-04-12T02:44:02.346Z,11.24
2023-04-12T02:46:29.536Z,11.27
2023-04-12T02:48:58.768Z,11.17
2023-04-12T02:51:35.134Z,11.17
2023-04-12T02:54:02.588Z,11.20
2023-04-12T02:56:39.238Z,11.16
2023-04-12T02:59:25.363Z,11.25
2023-04-12T03:02:22.286Z,11.20
2023-04-12T03:04:51.185Z,11.23
2023-04-12T03:07:22.814Z,11.17
2023-04-12T03:09:51.736Z,11.16
2023-04-12T03:12:21.104Z,10.95
2023-04-12T03:15:11.585Z,11.13
2023-04-12T03:17:38.776Z,11.09
2023-04-12T03:20:09.666Z,11.08
2023-04-12T03:22:39.330Z,11.12
2023-04-12T03:25:10.157Z,11.10
2023-04-12T03:27:41.641Z,11.16
2023-04-12T03:30:10.481Z,11.08
2023-04-12T03:32:39.720Z,11.06
2023-04-12T03:35:10.226Z,11.09
2023-04-12T03:37:42.108Z,11.11
2023-04-12T03:40:10.988Z,11.13
2023-04-12T03:42:41.294Z,11.09
2023-04-12T03:45:12.857Z,11.20
2023-04-12T03:47:43.194Z,11.19
2023-04-12T03:50:12.584Z,11.05
2023-04-12T03:52:44.865Z,11.12
2023-04-12T03:55:13.867Z,11.08
2023-04-12T03:57:42.622Z,11.09
2023-04-12T04:00:11.637Z,11.04
2023-04-12T04:03:03.871Z,11.15
2023-04-12T04:05:36.375Z,11.19
2023-04-12T04:08:07.068Z,11.14
2023-04-12T04:10:46.383Z,11.18
2023-04-12T04:13:13.935Z,11.02
2023-04-12T04:15:41.189Z,11.16
2023-04-12T04:18:09.924Z,11.31
2023-04-12T04:20:38.177Z,11.15
2023-04-12T04:23:05.162Z,11.27
2023-04-12T04:25:33.490Z,11.23
2023-04-12T04:28:05.551Z,11.34
2023-04-12T04:30:34.136Z,11.35
2023-04-12T04:33:02.680Z,11.41
2023-04-12T04:35:31.618Z,11.20
2023-04-12T04:38:15.717Z,11.25
2023-04-12T04:40:43.492Z,11.28
2023-04-12T04:43:13.963Z,11.26
2023-04-12T04:45:43.169Z,11.34
2023-04-12T04:48:30.099Z,11.29
2023-04-12T04:50:57.521Z,11.36
2023-04-12T04:53:24.520Z,11.37
2023-04-12T04:55:58.371Z,11.42
2023-04-12T04:58:27.707Z,11.48
2023-04-12T05:00:57.943Z,11.48
2023-04-12T05:03:30.809Z,11.53
2023-04-12T05:05:59.412Z,11.51
2023-04-12T05:08:26.674Z,11.43
2023-04-12T05:10:55.886Z,11.52
2023-04-12T05:13:25.368Z,11.59
2023-04-12T05:15:52.290Z,11.48
2023-04-12T05:18:20.541Z,11.51
2023-04-12T05:20:48.501Z,11.46
2023-04-12T05:23:15.843Z,11.50
2023-04-12T05:25:48.212Z,11.41
2023-04-12T05:28:17.295Z,11.43
2023-04-12T05:30:45.218Z,11.38
2023-04-12T05:33:15.872Z,11.40
2023-04-12T05:35:46.197Z,11.36
2023-04-12T05:38:13.156Z,11.51
2023-04-12T05:40:40.856Z,11.51
2023-04-12T05:43:12.552Z,11.51
2023-04-12T05:45:40.858Z,11.57
2023-04-12T05:48:08.771Z,11.63
2023-04-12T05:50:36.108Z,11.61
2023-04-12T05:53:03.475Z,11.63
2023-04-12T05:55:33.056Z,11.53
2023-04-12T05:58:01.553Z,11.62
2023-04-12T06:00:29.899Z,11.66
2023-04-12T06:02:58.473Z,11.69
2023-04-12T06:05:25.891Z,11.71
2023-04-12T06:07:53.025Z,11.75
2023-04-12T06:10:20.020Z,11.69
2023-04-12T06:12:50.676Z,11.70
2023-04-12T06:15:21.113Z,11.71
2023-04-12T06:17:53.274Z,11.85
2023-04-12T06:20:20.550Z,11.86
2023-04-12T06:22:47.593Z,11.89
2023-04-12T06:25:17.190Z,11.91
2023-04-12T06:27:46.390Z,11.99
2023-04-12T06:30:15.946Z,12.02
2023-04-12T06:32:43.429Z,12.01
2023-04-12T06:35:11.287Z,12.03
2023-04-12T06:37:38.564Z,12.02
2023-04-12T06:40:06.494Z,12.01
2023-04-12T06:42:33.369Z,12.08
2023-04-12T06:45:00.389Z,12.06
2023-04-12T06:47:27.643Z,12.11
2023-04-12T06:49:56.938Z,12.02
2023-04-12T06:52:27.582Z,12.18
2023-04-12T06:54:56.973Z,11.96
2023-04-12T06:57:24.365Z,12.17
2023-04-12T06:59:52.080Z,12.20
2023-04-12T07:02:19.292Z,12.17
2023-04-12T07:04:46.412Z,12.21
2023-04-12T07:07:13.762Z,12.24
2023-04-12T07:09:40.923Z,12.21
2023-04-12T07:12:16.558Z,12.16
2023-04-12T07:14:44.721Z,11.82
2023-04-12T07:17:12.316Z,12.23
2023-04-12T07:19:39.560Z,12.37
2023-04-12T07:22:06.817Z,12.11
2023-04-12T07:24:33.893Z,11.88
2023-04-12T07:27:00.851Z,12.23
2023-04-12T07:29:28.179Z,12.10
2023-04-12T07:31:55.319Z,12.21
2023-04-12T07:34:22.340Z,12.31
2023-04-12T07:36:49.508Z,12.37
2023-04-12T07:39:17.914Z,12.32
2023-04-12T07:41:47.033Z,12.21
2023-04-12T07:44:14.660Z,12.14
2023-04-12T07:46:42.234Z,12.12
2023-04-12T07:49:10.743Z,12.07
2023-04-12T07:51:38.679Z,12.03
2023-04-12T07:54:07.308Z,11.88
2023-04-12T07:56:35.676Z,11.75
2023-04-12T07:59:03.016Z,11.84
2023-04-12T08:01:30.439Z,12.00
2023-04-12T08:03:57.889Z,11.93
2023-04-12T08:06:26.786Z,12.05
2023-04-12T08:08:55.523Z,12.01
2023-04-12T08:11:22.580Z,11.97
2023-04-12T08:13:49.661Z,12.00
2023-04-12T08:16:16.699Z,12.17
2023-04-12T08:18:43.806Z,12.20
2023-04-12T08:21:10.874Z,12.03
2023-04-12T08:23:38.317Z,12.10
2023-04-12T08:26:05.513Z,11.99
2023-04-12T08:28:33.621Z,11.98
2023-04-12T08:31:01.066Z,11.84
2023-04-12T08:33:28.496Z,11.93
2023-04-12T08:35:55.840Z,11.76
2023-04-12T08:38:30.605Z,11.88
2023-04-12T08:41:08.729Z,11.87
2023-04-12T08:43:37.967Z,11.84
2023-04-12T08:46:05.730Z,12.14
2023-04-12T08:48:32.837Z,12.15
2023-04-12T08:51:00.884Z,12.02
2023-04-12T08:53:27.910Z,12.25
2023-04-12T08:55:54.768Z,12.32
2023-04-12T08:58:23.186Z,12.16
2023-04-12T09:00:50.571Z,12.26
2023-04-12T09:03:17.818Z,12.25
2023-04-12T09:05:45.474Z,11.97
2023-04-12T09:08:12.439Z,12.03
2023-04-12T09:10:39.713Z,12.08
2023-04-12T09:13:06.883Z,12.18
2023-04-12T09:15:34.497Z,12.08
2023-04-12T09:18:07.494Z,12.23
2023-04-12T09:20:39.104Z,12.24
2023-04-12T09:23:20.747Z,12.47
2023-04-12T09:25:50.178Z,12.41
2023-04-12T09:28:20.542Z,12.55
2023-04-12T09:30:51.879Z,12.64
2023-04-12T09:33:32.378Z,12.43
2023-04-12T09:36:06.049Z,12.41
2023-04-12T09:38:34.529Z,12.41
2023-04-12T09:41:32.071Z,12.27
2023-04-12T09:44:00.224Z,12.32
2023-04-12T09:46:28.074Z,11.97
2023-04-12T09:48:58.839Z,12.02
2023-04-12T09:51:29.312Z,12.14
2023-04-12T09:53:59.955Z,12.31
2023-04-12T09:56:37.922Z,12.57
2023-04-12T09:59:07.118Z,12.73
2023-04-12T10:01:36.989Z,12.70
2023-04-12T10:04:07.344Z,12.62
2023-04-12T10:06:35.138Z,12.87
2023-04-12T10:09:06.637Z,13.06
2023-04-12T10:11:34.312Z,13.24
2023-04-12T10:14:06.081Z,13.06
2023-04-12T10:16:40.413Z,13.11
2023-04-12T10:19:08.731Z,13.11
2023-04-12T10:21:35.837Z,13.07
2023-04-12T10:24:03.587Z,13.10
2023-04-12T10:26:30.521Z,13.11
2023-04-12T10:29:26.782Z,13.59
2023-04-12T10:32:20.711Z,13.73
2023-04-12T10:34:56.458Z,13.73
2023-04-12T10:37:58.935Z,13.83
2023-04-12T10:40:26.082Z,13.70
2023-04-12T10:43:28.797Z,13.94
2023-04-12T10:45:56.208Z,14.04
2023-04-12T10:48:30.028Z,14.17
2023-04-12T10:51:27.622Z,14.02
2023-04-12T10:54:09.634Z,14.06
2023-04-12T10:56:49.350Z,14.00
2023-04-12T10:59:34.205Z,14.16
2023-04-12T11:02:07.715Z,14.22
2023-04-12T11:04:36.212Z,14.21
2023-04-12T11:07:11.812Z,14.39
2023-04-12T11:09:45.760Z,14.23
2023-04-12T11:12:27.067Z,14.26
2023-04-12T11:15:01.100Z,14.14
2023-04-12T11:17:37.651Z,14.29
2023-04-12T11:20:05.657Z,14.21
2023-04-12T11:22:33.208Z,14.10
2023-04-12T11:25:03.038Z,14.10
2023-04-12T11:27:31.972Z,14.26
2023-04-12T11:30:01.075Z,14.16
2023-04-12T11:32:31.692Z,14.18
2023-04-12T11:34:58.945Z,14.27
2023-04-12T11:37:31.513Z,14.38
2023-04-12T11:39:59.487Z,14.20
2023-04-12T11:42:28.960Z,14.30
2023-04-12T11:44:59.790Z,14.45
2023-04-12T11:47:28.000Z,14.48
2023-04-12T11:49:57.347Z,14.69
2023-04-12T11:52:32.698Z,14.95
2023-04-12T11:55:06.450Z,14.98
2023-04-12T11:57:34.357Z,14.79
2023-04-12T12:00:01.543Z,14.89
2023-04-12T12:02:40.735Z,15.02
2023-04-12T12:05:13.639Z,14.92
2023-04-12T12:07:41.039Z,14.93
2023-04-12T12:10:08.743Z,14.90
2023-04-12T12:12:35.735Z,15.15
2023-04-12T12:15:02.685Z,15.30
2023-04-12T12:17:30.442Z,15.42
2023-04-12T12:19:59.369Z,15.40
2023-04-12T12:22:26.413Z,15.53
2023-04-12T12:24:58.877Z,15.48
2023-04-12T12:27:39.042Z,15.20
2023-04-12T12:30:10.077Z,14.95
2023-04-12T12:32:39.439Z,14.79
2023-04-12T12:35:11.641Z,14.87
2023-04-12T12:37:48.123Z,14.58
2023-04-12T12:40:15.672Z,14.08
2023-04-12T12:42:51.862Z,14.21
2023-04-12T12:45:20.709Z,14.51
2023-04-12T12:47:56.488Z,14.61
2023-04-12T12:50:25.376Z,14.84
2023-04-12T12:52:53.537Z,15.19
2023-04-12T12:55:21.942Z,15.23
2023-04-12T12:58:08.680Z,15.11
2023-04-12T13:00:36.541Z,14.79
2023-04-12T13:03:04.096Z,14.59
2023-04-12T13:05:31.510Z,14.39
2023-04-12T13:07:58.507Z,14.49
2023-04-12T13:10:27.204Z,14.33
2023-04-12T13:12:54.159Z,14.04
2023-04-12T13:15:23.530Z,14.02
2023-04-12T13:17:52.522Z,14.24
2023-04-12T13:20:19.670Z,14.28
2023-04-12T13:22:46.682Z,14.32
2023-04-12T13:25:13.970Z,14.47
2023-04-12T13:27:41.062Z,14.35
2023-04-12T13:30:08.539Z,14.64
2023-04-12T13:32:36.059Z,14.81
2023-04-12T13:35:03.894Z,14.66
2023-04-12T13:37:31.534Z,14.34
2023-04-12T13:39:59.764Z,14.26
2023-04-12T13:42:26.697Z,14.30
2023-04-12T13:44:53.764Z,14.30
2023-04-12T13:47:21.004Z,14.24
2023-04-12T13:49:47.932Z,14.38
2023-04-12T13:52:15.039Z,14.43
2023-04-12T13:54:43.398Z,14.47
2023-04-12T13:57:10.487Z,14.50
2023-04-12T13:59:37.745Z,14.52
2023-04-12T14:02:04.919Z,14.76
2023-04-12T14:04:32.091Z,14.64
2023-04-12T14:06:59.410Z,14.68
2023-04-12T14:09:31.792Z,14.61
2023-04-12T14:12:01.573Z,14.50
2023-04-12T14:14:28.690Z,14.41
2023-04-12T14:16:59.009Z,14.50
2023-04-12T14:19:26.554Z,14.48
2023-04-12T14:21:54.001Z,14.39
2023-04-12T14:24:21.898Z,14.33
2023-04-12T14:26:51.179Z,14.38
2023-04-12T14:29:18.074Z,14.51
2023-04-12T14:31:45.005Z,14.20
2023-04-12T14:34:13.454Z,14.61
2023-04-12T14:36:40.743Z,14.31
2023-04-12T14:39:10.506Z,14.46
2023-04-12T14:41:38.320Z,14.52
2023-04-12T14:44:05.639Z,14.57
2023-04-12T14:46:32.756Z,14.33
2023-04-12T14:49:01.590Z,14.37
2023-04-12T14:51:29.742Z,14.30
2023-04-12T14:53:57.857Z,14.40
2023-04-12T14:56:50.775Z,14.48
2023-04-12T14:59:29.367Z,14.35
2023-04-12T15:01:56.587Z,14.48
2023-04-12T15:04:23.938Z,14.34
2023-04-12T15:06:52.042Z,14.37
2023-04-12T15:09:18.983Z,14.26
2023-04-12T15:11:50.888Z,14.13
2023-04-12T15:14:20.515Z,14.16
2023-04-12T15:16:49.228Z,14.06
2023-04-12T15:19:20.926Z,14.20
2023-04-12T15:21:55.278Z,14.35
2023-04-12T15:24:23.073Z,14.32
2023-04-12T15:26:52.529Z,14.21
2023-04-12T15:32:42.629Z,14.27
2023-04-12T15:35:25.135Z,14.01
2023-04-12T15:37:54.443Z,14.04
2023-04-12T15:40:22.950Z,13.96
2023-04-12T15:42:49.916Z,13.88
2023-04-12T15:45:17.122Z,13.99
2023-04-12T15:47:45.878Z,13.98
2023-04-12T15:50:13.294Z,13.85
2023-04-12T15:52:43.069Z,13.87
2023-04-12T15:55:11.621Z,13.91
2023-04-12T15:57:39.247Z,13.85
2023-04-12T16:00:21.144Z,13.84
2023-04-12T16:02:53.623Z,13.91
2023-04-12T16:05:21.537Z,13.75
2023-04-12T16:07:51.622Z,13.81
2023-04-12T16:10:22.507Z,13.86
2023-04-12T16:12:51.073Z,13.82
2023-04-12T16:15:19.999Z,13.64
2023-04-12T16:17:48.216Z,13.70
2023-04-12T16:20:21.713Z,13.67
2023-04-12T16:22:56.208Z,13.68
2023-04-12T16:25:24.417Z,13.69
2023-04-12T16:27:52.296Z,13.69
2023-04-12T16:30:19.323Z,13.65
2023-04-12T16:32:47.287Z,13.64
2023-04-12T16:35:15.544Z,13.62
2023-04-12T16:37:47.059Z,13.69
2023-04-12T16:40:14.310Z,13.61
2023-04-12T16:42:41.939Z,13.67
2023-04-12T16:45:10.441Z,13.59
2023-04-12T16:47:38.280Z,13.45
2023-04-12T16:50:08.778Z,13.45
2023-04-12T16:52:36.891Z,13.37
2023-04-12T16:55:04.735Z,13.42
2023-04-12T16:57:32.896Z,13.34
2023-04-12T17:00:00.625Z,13.29
2023-04-12T17:02:30.163Z,13.33
2023-04-12T17:04:57.193Z,13.10
2023-04-12T17:07:26.668Z,12.89
2023-04-12T17:09:53.774Z,13.12
2023-04-12T17:12:21.293Z,13.05
2023-04-12T17:14:48.577Z,13.04
2023-04-12T17:17:15.940Z,12.90
2023-04-12T17:19:45.699Z,13.05
2023-04-12T17:22:12.796Z,13.08
2023-04-12T17:24:40.516Z,13.03
2023-04-12T17:27:07.640Z,13.05
2023-04-12T17:29:35.052Z,13.02
2023-04-12T17:32:04.371Z,12.91
2023-04-12T17:34:31.516Z,12.78
2023-04-12T17:36:58.364Z,12.70
2023-04-12T17:39:25.276Z,12.70
2023-04-12T17:41:52.416Z,12.66
2023-04-12T17:44:19.464Z,12.78
2023-04-12T17:46:46.600Z,12.63
2023-04-12T17:49:13.645Z,12.66
2023-04-12T17:51:40.940Z,12.72
2023-04-12T17:54:07.856Z,12.72
2023-04-12T17:56:34.765Z,12.80
2023-04-12T17:59:02.634Z,12.79
2023-04-12T18:01:29.606Z,12.67
2023-04-12T18:03:57.508Z,12.65
2023-04-12T18:06:24.496Z,12.59
2023-04-12T18:08:52.604Z,12.47
2023-04-12T18:11:20.417Z,12.54
2023-04-12T18:13:47.448Z,12.45
2023-04-12T18:16:14.303Z,12.50
2023-04-12T18:18:41.421Z,12.52
2023-04-12T18:21:08.320Z,12.44
2023-04-12T18:23:35.421Z,12.39
2023-04-12T18:26:05.576Z,12.46
2023-04-12T18:28:32.443Z,12.52
2023-04-12T18:31:02.282Z,12.53
2023-04-12T18:33:31.211Z,12.68
2023-04-12T18:35:58.231Z,12.66
2023-04-12T18:38:25.247Z,12.61
2023-04-12T18:40:52.255Z,12.57
2023-04-12T18:43:19.333Z,12.50
2023-04-12T18:45:46.224Z,12.49
2023-04-12T18:48:13.139Z,12.32
2023-04-12T18:50:40.098Z,12.28
2023-04-12T18:53:08.146Z,12.31
2023-04-12T18:55:35.090Z,12.20
2023-04-12T18:58:02.436Z,12.26
2023-04-12T19:00:29.411Z,12.23
2023-04-12T19:02:56.451Z,12.25
2023-04-12T19:05:23.438Z,12.20
2023-04-12T19:07:50.872Z,12.21
2023-04-12T19:10:18.519Z,12.17
2023-04-12T19:12:45.379Z,12.07
2023-04-12T19:15:24.510Z,12.22
2023-04-12T19:17:54.493Z,12.21
2023-04-12T19:20:21.608Z,12.20
2023-04-12T19:22:48.533Z,12.19
2023-04-12T19:25:18.941Z,12.08
2023-04-12T19:27:46.947Z,12.12
2023-04-12T19:30:14.857Z,12.02
2023-04-12T19:32:42.618Z,12.00
2023-04-12T19:35:10.663Z,12.01
2023-04-12T19:37:38.338Z,12.22
2023-04-12T19:40:06.617Z,12.09
2023-04-12T19:42:33.589Z,12.19
2023-04-12T19:45:01.139Z,12.22
2023-04-12T19:47:29.224Z,12.21
2023-04-12T19:49:56.633Z,12.17
2023-04-12T19:52:23.954Z,12.25
2023-04-12T19:54:52.738Z,12.20
2023-04-12T19:57:20.214Z,12.20
2023-04-12T19:59:49.779Z,12.13
2023-04-12T20:02:17.142Z,12.13
2023-04-12T20:04:44.230Z,12.04
2023-04-12T20:07:11.554Z,11.95
2023-04-12T20:09:38.795Z,11.93
2023-04-12T20:12:06.428Z,11.99
2023-04-12T20:14:35.910Z,12.01
2023-04-12T20:17:05.995Z,12.10
2023-04-12T20:19:33.180Z,12.10
2023-04-12T20:22:04.187Z,12.18
2023-04-12T20:24:34.411Z,12.16
2023-04-12T20:27:02.393Z,12.14
2023-04-12T20:29:37.252Z,12.28
2023-04-12T20:32:04.405Z,12.15
2023-04-12T20:34:31.383Z,12.13
2023-04-12T20:36:59.973Z,12.16
2023-04-12T20:39:29.591Z,12.02
2023-04-12T20:42:01.021Z,12.14
2023-04-12T20:44:28.013Z,12.12
2023-04-12T20:46:55.180Z,12.21
2023-04-12T20:49:22.261Z,12.17
2023-04-12T20:51:49.965Z,12.14
2023-04-12T20:54:16.885Z,12.20
2023-04-12T20:56:45.204Z,11.98
2023-04-12T20:59:12.160Z,11.92
2023-04-12T21:01:39.172Z,11.91
2023-04-12T21:06:55.438Z,11.95
2023-04-12T21:09:25.451Z,11.85
2023-04-12T21:11:53.147Z,11.71
2023-04-12T21:14:20.604Z,11.69
2023-04-12T21:16:50.874Z,11.84
2023-04-12T21:19:18.540Z,11.99
2023-04-12T21:21:46.295Z,11.95
2023-04-12T21:24:13.366Z,11.84
2023-04-12T21:26:42.933Z,11.87
2023-04-12T21:29:10.523Z,11.83
2023-04-12T21:31:39.172Z,11.80
2023-04-12T21:34:07.213Z,11.72
2023-04-12T21:36:34.242Z,11.77
2023-04-12T21:39:01.451Z,11.73
2023-04-12T21:41:29.707Z,11.74
2023-04-12T21:43:56.735Z,11.70
2023-04-12T21:46:27.755Z,11.68
2023-04-12T21:48:54.912Z,11.65
2023-04-12T21:51:23.536Z,11.64
2023-04-12T21:53:50.449Z,11.59
2023-04-12T21:56:17.410Z,11.60
2023-04-12T21:58:44.254Z,11.61
2023-04-12T22:01:11.188Z,11.61
2023-04-12T22:03:38.345Z,11.46
2023-04-12T22:06:05.726Z,11.40
2023-04-12T22:08:35.379Z,11.31
2023-04-12T22:11:02.211Z,11.29
2023-04-12T22:13:29.118Z,11.26
2023-04-12T22:15:57.857Z,11.34
2023-04-12T22:18:24.801Z,11.30
2023-04-12T22:20:52.515Z,11.33
2023-04-12T22:23:19.446Z,11.39
2023-04-12T22:25:46.338Z,11.41
2023-04-12T22:28:13.317Z,11.37
2023-04-12T22:30:40.366Z,11.35
2023-04-12T22:33:08.404Z,11.39
2023-04-12T22:35:37.188Z,11.26
2023-04-12T22:38:04.896Z,11.37
2023-04-12T22:40:32.061Z,11.17
2023-04-12T22:42:59.029Z,11.37
2023-04-12T22:45:25.856Z,11.46
2023-04-12T22:47:52.998Z,11.43
2023-04-12T22:50:20.129Z,11.37
2023-04-12T22:52:49.866Z,11.25
2023-04-12T22:55:20.568Z,11.31
2023-04-12T22:57:47.500Z,11.31
2023-04-12T23:00:17.078Z,11.18
2023-04-12T23:02:46.207Z,11.18
2023-04-12T23:05:14.103Z,11.17
2023-04-12T23:07:41.448Z,11.12
2023-04-12T23:10:09.117Z,11.15
2023-04-12T23:12:37.441Z,11.05
2023-04-12T23:15:05.796Z,10.93
2023-04-12T23:17:32.968Z,10.91
2023-04-12T23:20:02.119Z,10.92
2023-04-12T23:22:48.615Z,10.92
2023-04-12T23:25:41.264Z,10.90
2023-04-12T23:28:12.978Z,10.92
2023-04-12T23:30:42.999Z,10.86
2023-04-12T23:33:12.035Z,10.88
2023-04-12T23:35:41.295Z,10.83
2023-04-12T23:38:09.428Z,10.74
2023-04-12T23:40:36.329Z,10.78
2023-04-12T23:43:04.648Z,10.63
2023-04-12T23:45:31.629Z,10.63
2023-04-12T23:47:58.638Z,10.73
2023-04-12T23:50:25.716Z,10.73
2023-04-12T23:52:52.856Z,10.83
2023-04-12T23:55:19.967Z,10.83
2023-04-12T23:57:46.972Z,10.83
